createdAt,value
2023-03-29T00:00:12.978Z,5.73
2023-03-29T00:02:41.936Z,5.92
2023-03-29T00:05:10.228Z,5.97
2023-03-29T00:07:37.464Z,5.82
2023-03-29T00:10:05.766Z,5.92
2023-03-29T00:12:33.472Z,5.54
2023-03-29T00:15:00.761Z,5.98
2023-03-29T00:17:28.939Z,5.75
2023-03-29T00:19:56.304Z,6.12
2023-03-29T00:22:23.869Z,6.25
2023-03-29T00:24:54.927Z,6.05
2023-03-29T00:27:22.382Z,6.10
2023-03-29T00:29:49.719Z,6.11
2023-03-29T00:32:17.144Z,5.78
2023-03-29T00:34:45.958Z,5.74
2023-03-29T00:37:14.867Z,5.66
2023-03-29T00:39:42.311Z,5.66
2023-03-29T00:42:14.777Z,5.48
2023-03-29T00:45:00.659Z,6.08
2023-03-29T00:47:43.736Z,6.20
2023-03-29T00:50:16.405Z,6.29
2023-03-29T00:52:51.341Z,6.33
2023-03-29T00:55:23.858Z,6.32
2023-03-29T00:57:55.798Z,6.25
2023-03-29T01:00:31.843Z,6.26
2023-03-29T01:03:07.102Z,6.25
2023-03-29T01:05:44.755Z,6.23
2023-03-29T01:08:21.703Z,6.23
2023-03-29T01:10:58.778Z,6.15
2023-03-29T01:13:39.310Z,6.25
2023-03-29T01:16:10.424Z,6.28
2023-03-29T01:18:38.392Z,5.89
2023-03-29T01:21:21.686Z,5.95
2023-03-29T01:24:15.243Z,6.22
2023-03-29T01:27:13.910Z,5.67
2023-03-29T01:30:04.115Z,6.15
2023-03-29T01:32:46.105Z,6.20
2023-03-29T01:35:22.654Z,6.33
2023-03-29T01:38:05.244Z,6.14
2023-03-29T01:40:35.362Z,6.21
2023-03-29T01:43:49.618Z,6.14
2023-03-29T01:46:45.546Z,6.22
2023-03-29T01:50:00.620Z,6.27
2023-03-29T01:52:54.269Z,6.14
2023-03-29T01:55:27.077Z,6.13
2023-03-29T01:57:59.208Z,6.16
2023-03-29T02:00:29.565Z,6.14
2023-03-29T02:03:05.787Z,5.98
2023-03-29T02:05:35.089Z,6.14
2023-03-29T02:08:07.798Z,6.17
2023-03-29T02:10:36.749Z,5.77
2023-03-29T02:13:05.592Z,5.96
2023-03-29T02:15:32.779Z,5.97
2023-03-29T02:18:00.146Z,6.05
2023-03-29T02:20:38.997Z,5.94
2023-03-29T02:23:18.642Z,5.90
2023-03-29T02:25:48.027Z,5.87
2023-03-29T02:28:15.979Z,5.86
2023-03-29T02:31:27.994Z,6.04
2023-03-29T02:34:02.934Z,5.94
2023-03-29T02:36:42.296Z,6.03
2023-03-29T02:39:15.717Z,5.94
2023-03-29T02:41:48.258Z,5.83
2023-03-29T02:44:22.524Z,5.91
2023-03-29T02:46:56.166Z,6.00
2023-03-29T02:49:24.264Z,5.91
2023-03-29T02:51:56.386Z,5.92
2023-03-29T02:54:29.932Z,5.87
2023-03-29T02:57:01.071Z,5.96
2023-03-29T02:59:29.955Z,5.84
2023-03-29T03:01:57.253Z,5.88
2023-03-29T03:04:25.439Z,5.84
2023-03-29T03:06:52.647Z,5.86
2023-03-29T03:09:19.880Z,5.57
2023-03-29T03:11:47.040Z,5.71
2023-03-29T03:14:14.165Z,5.66
2023-03-29T03:16:41.350Z,5.87
2023-03-29T03:19:10.270Z,5.88
2023-03-29T03:21:38.299Z,5.84
2023-03-29T03:24:06.323Z,5.77
2023-03-29T03:26:33.746Z,5.75
2023-03-29T03:29:01.238Z,5.93
2023-03-29T03:31:28.532Z,5.96
2023-03-29T03:33:56.587Z,5.83
2023-03-29T03:36:26.045Z,5.80
2023-03-29T03:38:53.267Z,5.85
2023-03-29T03:41:20.880Z,5.96
2023-03-29T03:43:48.724Z,5.78
2023-03-29T03:46:17.169Z,5.89
2023-03-29T03:48:46.021Z,5.93
2023-03-29T03:51:13.478Z,5.90
2023-03-29T03:53:41.570Z,5.85
2023-03-29T03:56:09.254Z,5.68
2023-03-29T03:58:37.881Z,5.76
2023-03-29T04:01:08.354Z,5.46
2023-03-29T04:03:37.607Z,5.66
2023-03-29T04:06:05.917Z,5.87
2023-03-29T04:08:33.200Z,5.82
2023-03-29T04:11:01.060Z,5.85
2023-03-29T04:13:28.462Z,5.82
2023-03-29T04:15:58.818Z,5.81
2023-03-29T04:18:27.681Z,5.77
2023-03-29T04:20:55.242Z,5.74
2023-03-29T04:23:22.440Z,5.68
2023-03-29T04:25:53.691Z,5.62
2023-03-29T04:28:21.371Z,5.81
2023-03-29T04:30:49.034Z,5.79
2023-03-29T04:33:16.334Z,5.74
2023-03-29T04:35:43.705Z,5.82
2023-03-29T04:38:11.534Z,5.77
2023-03-29T04:40:38.723Z,5.61
2023-03-29T04:43:06.305Z,5.62
2023-03-29T04:45:33.532Z,5.48
2023-03-29T04:48:00.872Z,5.54
2023-03-29T04:50:28.614Z,5.67
2023-03-29T04:52:55.779Z,5.40
2023-03-29T04:55:22.991Z,5.61
2023-03-29T04:57:50.272Z,5.31
2023-03-29T05:00:18.005Z,5.49
2023-03-29T05:02:46.628Z,5.61
2023-03-29T05:05:14.243Z,5.63
2023-03-29T05:07:41.614Z,5.66
2023-03-29T05:10:09.659Z,5.75
2023-03-29T05:12:37.176Z,5.64
2023-03-29T05:15:05.927Z,5.61
2023-03-29T05:17:33.198Z,5.64
2023-03-29T05:20:01.262Z,5.56
2023-03-29T05:22:29.659Z,5.56
2023-03-29T05:24:57.461Z,5.60
2023-03-29T05:27:24.702Z,5.61
2023-03-29T05:29:51.879Z,5.60
2023-03-29T05:32:19.696Z,5.60
2023-03-29T05:34:46.846Z,5.75
2023-03-29T05:37:14.060Z,5.79
2023-03-29T05:39:41.309Z,5.82
2023-03-29T05:42:12.245Z,5.69
2023-03-29T05:44:40.317Z,5.51
2023-03-29T05:47:07.819Z,5.39
2023-03-29T05:49:35.129Z,5.75
2023-03-29T05:52:02.501Z,5.74
2023-03-29T05:54:29.676Z,5.67
2023-03-29T05:56:56.928Z,5.78
2023-03-29T05:59:24.524Z,5.82
2023-03-29T06:01:52.020Z,5.84
2023-03-29T06:04:19.468Z,5.86
2023-03-29T06:06:46.810Z,5.66
2023-03-29T06:09:14.273Z,5.80
2023-03-29T06:11:41.477Z,5.94
2023-03-29T06:14:08.810Z,5.82
2023-03-29T06:16:36.445Z,5.89
2023-03-29T06:19:03.703Z,5.79
2023-03-29T06:21:31.668Z,5.82
2023-03-29T06:23:59.670Z,5.67
2023-03-29T06:26:28.024Z,5.88
2023-03-29T06:28:55.375Z,5.70
2023-03-29T06:31:22.934Z,5.70
2023-03-29T06:33:50.826Z,5.89
2023-03-29T06:36:18.298Z,5.95
2023-03-29T06:38:45.953Z,6.39
2023-03-29T06:41:13.145Z,6.44
2023-03-29T06:43:40.675Z,6.52
2023-03-29T06:46:11.817Z,6.45
2023-03-29T06:48:41.305Z,6.62
2023-03-29T06:51:08.704Z,6.35
2023-03-29T06:53:36.636Z,6.37
2023-03-29T06:56:09.038Z,6.25
2023-03-29T06:58:37.192Z,6.80
2023-03-29T07:01:05.207Z,6.75
2023-03-29T07:03:34.954Z,7.03
2023-03-29T07:06:09.736Z,6.86
2023-03-29T07:08:43.720Z,6.80
2023-03-29T07:11:13.512Z,7.05
2023-03-29T07:13:42.605Z,6.47
2023-03-29T07:16:12.748Z,6.97
2023-03-29T07:18:42.815Z,6.78
2023-03-29T07:21:12.542Z,6.89
2023-03-29T07:23:39.908Z,6.78
2023-03-29T07:26:08.063Z,6.64
2023-03-29T07:28:39.348Z,6.82
2023-03-29T07:31:11.083Z,7.02
2023-03-29T07:33:39.337Z,7.12
2023-03-29T07:36:07.609Z,7.00
2023-03-29T07:38:34.794Z,6.88
2023-03-29T07:41:07.965Z,7.20
2023-03-29T07:43:35.656Z,7.53
2023-03-29T07:46:05.980Z,7.51
2023-03-29T07:48:33.888Z,7.62
2023-03-29T07:51:01.388Z,7.52
2023-03-29T07:53:32.225Z,7.53
2023-03-29T07:55:59.793Z,7.43
2023-03-29T07:58:27.386Z,7.71
2023-03-29T08:00:54.621Z,7.54
2023-03-29T08:03:22.756Z,7.77
2023-03-29T08:05:50.047Z,8.03
2023-03-29T08:08:17.355Z,8.00
2023-03-29T08:10:44.751Z,8.21
2023-03-29T08:13:12.527Z,8.30
2023-03-29T08:15:40.044Z,8.52
2023-03-29T08:18:08.233Z,8.60
2023-03-29T08:20:35.557Z,8.48
2023-03-29T08:23:05.865Z,7.92
2023-03-29T08:25:33.499Z,8.34
2023-03-29T08:28:00.990Z,8.34
2023-03-29T08:30:28.252Z,8.35
2023-03-29T08:32:55.722Z,8.38
2023-03-29T08:35:23.131Z,8.46
2023-03-29T08:37:50.331Z,8.45
2023-03-29T08:40:27.227Z,8.52
2023-03-29T08:42:54.321Z,8.46
2023-03-29T08:45:30.601Z,8.20
2023-03-29T08:48:35.781Z,8.36
2023-03-29T08:51:29.354Z,8.39
2023-03-29T08:54:11.417Z,8.60
2023-03-29T08:56:43.347Z,8.41
2023-03-29T08:59:29.757Z,8.29
2023-03-29T09:02:00.408Z,8.34
2023-03-29T09:04:32.954Z,8.28
2023-03-29T09:07:02.795Z,8.58
2023-03-29T09:09:34.597Z,8.56
2023-03-29T09:12:26.284Z,8.64
2023-03-29T09:15:06.725Z,8.70
2023-03-29T09:18:08.063Z,8.71
2023-03-29T09:20:57.036Z,8.71
2023-03-29T09:23:49.877Z,8.92
2023-03-29T09:26:41.735Z,8.79
2023-03-29T09:29:38.629Z,8.92
2023-03-29T09:32:19.510Z,9.09
2023-03-29T09:35:06.357Z,8.89
2023-03-29T09:37:39.274Z,8.92
2023-03-29T09:40:24.624Z,9.25
2023-03-29T09:42:55.926Z,9.23
2023-03-29T09:45:23.641Z,9.53
2023-03-29T09:48:12.535Z,9.59
2023-03-29T09:50:47.396Z,9.74
2023-03-29T09:53:15.913Z,9.89
2023-03-29T09:55:47.808Z,9.92
2023-03-29T09:58:21.211Z,9.90
2023-03-29T10:00:49.937Z,9.81
2023-03-29T10:03:23.850Z,9.95
2023-03-29T10:05:55.845Z,10.04
2023-03-29T10:08:40.794Z,9.75
2023-03-29T10:11:18.411Z,9.78
2023-03-29T10:13:50.538Z,9.63
2023-03-29T10:16:38.068Z,9.81
2023-03-29T10:19:34.818Z,10.11
2023-03-29T10:22:16.358Z,10.04
2023-03-29T10:24:51.323Z,10.19
2023-03-29T10:27:31.977Z,10.48
2023-03-29T10:30:12.763Z,10.40
2023-03-29T10:32:41.429Z,10.12
2023-03-29T10:35:24.940Z,10.12
2023-03-29T10:37:57.556Z,10.17
2023-03-29T10:40:41.330Z,10.33
2023-03-29T10:43:17.642Z,10.51
2023-03-29T10:45:50.184Z,10.43
2023-03-29T10:48:19.247Z,10.27
2023-03-29T10:50:53.138Z,10.11
2023-03-29T10:53:29.099Z,10.21
2023-03-29T10:56:16.806Z,9.97
2023-03-29T10:58:59.071Z,10.01
2023-03-29T11:01:52.124Z,10.05
2023-03-29T11:05:09.211Z,10.07
2023-03-29T11:08:16.126Z,9.97
2023-03-29T11:11:05.988Z,9.95
2023-03-29T11:13:49.201Z,9.99
2023-03-29T11:16:41.243Z,10.17
2023-03-29T11:19:39.509Z,10.43
2023-03-29T11:22:41.302Z,10.25
2023-03-29T11:25:25.781Z,10.42
2023-03-29T11:28:18.038Z,10.21
2023-03-29T11:31:05.683Z,10.16
2023-03-29T11:34:18.041Z,10.40
2023-03-29T11:37:38.100Z,10.61
2023-03-29T11:40:44.478Z,10.74
2023-03-29T11:43:25.185Z,11.29
2023-03-29T11:46:09.926Z,11.49
2023-03-29T11:48:53.678Z,11.22
2023-03-29T11:51:27.726Z,10.97
2023-03-29T11:53:57.791Z,10.77
2023-03-29T11:56:34.992Z,10.61
2023-03-29T11:59:15.960Z,10.95
2023-03-29T12:01:52.473Z,11.08
2023-03-29T12:04:47.137Z,11.12
2023-03-29T12:07:29.330Z,11.16
2023-03-29T12:10:07.968Z,11.31
2023-03-29T12:13:03.247Z,11.26
2023-03-29T12:15:41.053Z,11.47
2023-03-29T12:18:25.019Z,11.35
2023-03-29T12:21:00.487Z,11.19
2023-03-29T12:23:31.888Z,10.93
2023-03-29T12:26:11.937Z,10.76
2023-03-29T12:29:27.224Z,10.68
2023-03-29T12:32:32.348Z,10.82
2023-03-29T12:35:24.290Z,10.93
2023-03-29T12:38:04.864Z,10.89
2023-03-29T12:40:48.710Z,11.00
2023-03-29T12:43:27.637Z,10.86
2023-03-29T12:46:18.394Z,10.84
2023-03-29T12:48:53.102Z,11.15
2023-03-29T12:51:32.272Z,11.26
2023-03-29T12:54:28.640Z,11.50
2023-03-29T12:57:21.995Z,11.38
2023-03-29T12:59:49.675Z,11.38
2023-03-29T13:02:19.643Z,11.81
2023-03-29T13:04:52.424Z,12.24
2023-03-29T13:07:22.560Z,12.35
2023-03-29T13:09:55.385Z,12.34
2023-03-29T13:12:34.792Z,12.07
2023-03-29T13:15:22.958Z,12.05
2023-03-29T13:18:09.638Z,11.95
2023-03-29T13:20:45.905Z,12.00
2023-03-29T13:24:03.280Z,12.27
2023-03-29T13:26:33.438Z,12.65
2023-03-29T13:29:37.983Z,12.33
2023-03-29T13:32:43.426Z,12.41
2023-03-29T13:35:40.292Z,12.17
2023-03-29T13:38:18.863Z,12.08
2023-03-29T13:40:52.823Z,12.13
2023-03-29T13:43:32.989Z,12.00
2023-03-29T13:46:00.366Z,11.81
2023-03-29T13:48:36.694Z,11.69
2023-03-29T13:51:24.313Z,11.83
2023-03-29T13:54:07.456Z,11.62
2023-03-29T13:56:49.151Z,11.79
2023-03-29T13:59:25.149Z,11.86
2023-03-29T14:01:58.133Z,11.94
2023-03-29T14:04:34.541Z,11.89
2023-03-29T14:07:02.331Z,11.85
2023-03-29T14:09:32.773Z,11.93
2023-03-29T14:12:01.071Z,11.80
2023-03-29T14:14:32.684Z,11.72
2023-03-29T14:17:01.041Z,11.99
2023-03-29T14:19:32.083Z,11.98
2023-03-29T14:22:02.173Z,12.13
2023-03-29T14:24:40.337Z,12.20
2023-03-29T14:27:11.484Z,12.23
2023-03-29T14:29:38.718Z,12.19
2023-03-29T14:32:17.743Z,12.22
2023-03-29T14:34:49.811Z,12.15
2023-03-29T14:37:27.806Z,12.16
2023-03-29T14:39:56.646Z,12.10
2023-03-29T14:42:29.053Z,12.02
2023-03-29T14:45:06.384Z,11.84
2023-03-29T14:47:34.355Z,11.80
2023-03-29T14:50:02.620Z,11.88
2023-03-29T14:52:32.090Z,11.81
2023-03-29T14:55:02.284Z,11.79
2023-03-29T14:57:36.379Z,11.75
2023-03-29T15:00:24.629Z,11.68
2023-03-29T15:03:01.621Z,11.72
2023-03-29T15:05:40.177Z,11.74
2023-03-29T15:08:15.398Z,11.72
2023-03-29T15:10:45.145Z,11.67
2023-03-29T15:13:21.638Z,11.60
2023-03-29T15:15:53.799Z,11.63
2023-03-29T15:18:31.163Z,11.52
2023-03-29T15:20:59.553Z,11.26
2023-03-29T15:23:38.588Z,11.24
2023-03-29T15:26:15.813Z,11.36
2023-03-29T15:28:55.551Z,11.28
2023-03-29T15:31:34.770Z,11.22
2023-03-29T15:34:14.092Z,11.36
2023-03-29T15:36:45.341Z,11.14
2023-03-29T15:39:15.260Z,11.32
2023-03-29T15:41:44.828Z,11.28
2023-03-29T15:44:17.490Z,11.20
2023-03-29T15:46:44.821Z,11.28
2023-03-29T15:49:13.989Z,11.23
2023-03-29T15:51:41.514Z,11.18
2023-03-29T15:54:09.200Z,11.35
2023-03-29T15:56:55.152Z,11.26
2023-03-29T15:59:23.091Z,11.35
2023-03-29T16:01:50.691Z,11.36
2023-03-29T16:04:20.969Z,11.38
2023-03-29T16:06:53.244Z,11.22
2023-03-29T16:09:22.282Z,11.40
2023-03-29T16:11:50.205Z,11.13
2023-03-29T16:14:22.817Z,11.17
2023-03-29T16:16:55.560Z,11.25
2023-03-29T16:19:23.760Z,11.29
2023-03-29T16:21:52.567Z,11.16
2023-03-29T16:24:24.390Z,11.17
2023-03-29T16:26:54.776Z,11.18
2023-03-29T16:29:24.763Z,11.14
2023-03-29T16:31:52.885Z,11.13
2023-03-29T16:34:22.650Z,11.11
2023-03-29T16:36:50.815Z,11.28
2023-03-29T16:39:18.306Z,11.25
2023-03-29T16:41:48.404Z,11.16
2023-03-29T16:44:21.674Z,11.16
2023-03-29T16:46:52.588Z,11.31
2023-03-29T16:49:19.749Z,11.29
2023-03-29T16:51:48.249Z,11.22
2023-03-29T16:54:17.232Z,11.23
2023-03-29T16:56:45.135Z,11.14
2023-03-29T16:59:12.373Z,11.20
2023-03-29T17:01:40.590Z,11.20
2023-03-29T17:04:09.229Z,11.22
2023-03-29T17:06:36.583Z,11.15
2023-03-29T17:09:04.907Z,11.09
2023-03-29T17:11:32.116Z,11.15
2023-03-29T17:13:59.983Z,11.17
2023-03-29T17:16:28.929Z,11.10
2023-03-29T17:19:00.509Z,11.10
2023-03-29T17:21:30.742Z,10.97
2023-03-29T17:23:57.953Z,10.99
2023-03-29T17:26:25.986Z,10.90
2023-03-29T17:28:53.188Z,10.95
2023-03-29T17:31:20.520Z,10.97
2023-03-29T17:33:50.461Z,10.97
2023-03-29T17:36:19.162Z,10.99
2023-03-29T17:38:48.794Z,11.11
2023-03-29T17:41:17.589Z,11.12
2023-03-29T17:43:45.203Z,11.13
2023-03-29T17:46:12.420Z,11.11
2023-03-29T17:48:39.710Z,11.15
2023-03-29T17:51:07.090Z,11.16
2023-03-29T17:53:34.240Z,11.16
2023-03-29T17:56:01.738Z,10.91
2023-03-29T17:58:29.176Z,11.12
2023-03-29T18:00:56.429Z,11.08
2023-03-29T18:03:23.658Z,11.07
2023-03-29T18:05:51.086Z,11.12
2023-03-29T18:08:18.857Z,11.01
2023-03-29T18:10:46.296Z,11.00
2023-03-29T18:13:14.653Z,10.96
2023-03-29T18:15:45.025Z,11.02
2023-03-29T18:18:13.495Z,11.06
2023-03-29T18:20:40.652Z,11.01
2023-03-29T18:23:07.832Z,10.91
2023-03-29T18:25:35.366Z,10.71
2023-03-29T18:28:02.714Z,10.67
2023-03-29T18:30:29.923Z,10.83
2023-03-29T18:32:57.083Z,10.81
2023-03-29T18:35:24.307Z,10.81
2023-03-29T18:37:52.180Z,10.86
2023-03-29T18:40:24.434Z,10.79
2023-03-29T18:42:51.897Z,10.92
2023-03-29T18:45:19.409Z,10.90
2023-03-29T18:47:46.827Z,10.89
2023-03-29T18:50:14.028Z,10.86
2023-03-29T18:52:41.168Z,10.88
2023-03-29T18:55:08.393Z,10.95
2023-03-29T18:57:35.674Z,10.94
2023-03-29T19:00:10.329Z,10.94
2023-03-29T19:02:39.503Z,10.95
2023-03-29T19:05:08.610Z,10.96
2023-03-29T19:07:36.032Z,10.79
2023-03-29T19:10:04.913Z,10.77
2023-03-29T19:12:35.204Z,10.74
2023-03-29T19:15:02.392Z,10.81
2023-03-29T19:17:29.565Z,10.95
2023-03-29T19:19:56.763Z,10.66
2023-03-29T19:22:24.756Z,10.80
2023-03-29T19:24:51.925Z,10.77
2023-03-29T19:27:19.082Z,10.82
2023-03-29T19:29:46.531Z,10.79
2023-03-29T19:32:13.732Z,10.89
2023-03-29T19:34:40.879Z,10.82
2023-03-29T19:37:08.133Z,10.67
2023-03-29T19:39:35.290Z,10.63
2023-03-29T19:42:02.492Z,10.54
2023-03-29T19:44:30.123Z,10.56
2023-03-29T19:46:57.481Z,10.65
2023-03-29T19:49:24.896Z,10.53
2023-03-29T19:51:54.467Z,10.49
2023-03-29T19:54:21.852Z,10.51
2023-03-29T19:56:52.408Z,10.51
2023-03-29T19:59:20.211Z,10.41
2023-03-29T20:01:50.666Z,10.51
2023-03-29T20:04:22.797Z,10.50
2023-03-29T20:06:50.912Z,10.62
2023-03-29T20:09:18.606Z,10.50
2023-03-29T20:11:46.843Z,10.41
2023-03-29T20:14:14.218Z,10.28
2023-03-29T20:16:42.720Z,10.41
2023-03-29T20:19:09.885Z,10.39
2023-03-29T20:21:41.929Z,10.24
2023-03-29T20:24:10.592Z,10.27
2023-03-29T20:26:37.955Z,10.29
2023-03-29T20:29:06.204Z,10.34
2023-03-29T20:31:33.416Z,10.36
2023-03-29T20:34:00.674Z,10.50
2023-03-29T20:36:30.611Z,10.41
2023-03-29T20:38:59.235Z,10.32
2023-03-29T20:41:26.897Z,10.36
2023-03-29T20:44:00.537Z,10.26
2023-03-29T20:46:35.761Z,10.31
2023-03-29T20:49:07.312Z,10.36
2023-03-29T20:51:34.759Z,10.37
2023-03-29T20:54:05.190Z,10.36
2023-03-29T20:56:37.457Z,10.33
2023-03-29T20:59:05.755Z,10.25
2023-03-29T21:01:35.264Z,10.29
2023-03-29T21:04:02.859Z,10.23
2023-03-29T21:06:30.157Z,10.32
2023-03-29T21:08:57.462Z,10.13
2023-03-29T21:11:24.629Z,10.20
2023-03-29T21:13:52.840Z,10.36
2023-03-29T21:16:20.735Z,10.04
2023-03-29T21:18:47.957Z,10.17
2023-03-29T21:21:15.158Z,10.13
2023-03-29T21:23:42.302Z,10.11
2023-03-29T21:26:09.600Z,10.10
2023-03-29T21:28:37.608Z,10.20
2023-03-29T21:31:06.523Z,10.25
2023-03-29T21:33:35.135Z,10.31
2023-03-29T21:36:02.597Z,10.13
2023-03-29T21:38:29.873Z,10.19
2023-03-29T21:40:58.163Z,10.08
2023-03-29T21:43:25.495Z,9.97
2023-03-29T21:45:52.750Z,9.95
2023-03-29T21:48:20.125Z,10.08
2023-03-29T21:50:50.992Z,9.95
2023-03-29T21:53:18.438Z,9.97
2023-03-29T21:55:48.961Z,10.03
2023-03-29T21:58:16.611Z,9.88
2023-03-29T22:00:45.463Z,9.98
2023-03-29T22:03:14.032Z,10.01
2023-03-29T22:05:41.833Z,10.02
2023-03-29T22:08:10.239Z,10.05
2023-03-29T22:10:41.366Z,10.05
2023-03-29T22:13:09.514Z,10.19
2023-03-29T22:15:36.677Z,10.16
2023-03-29T22:18:05.096Z,10.04
2023-03-29T22:20:34.143Z,10.15
2023-03-29T22:23:01.314Z,10.33
2023-03-29T22:25:28.679Z,10.16
2023-03-29T22:27:55.941Z,10.16
2023-03-29T22:30:23.257Z,10.18
2023-03-29T22:32:50.782Z,10.26
2023-03-29T22:35:18.104Z,10.01
2023-03-29T22:37:45.623Z,10.19
2023-03-29T22:40:14.338Z,9.92
2023-03-29T22:42:41.684Z,10.02
2023-03-29T22:45:09.648Z,10.09
2023-03-29T22:47:37.066Z,9.84
2023-03-29T22:50:04.832Z,9.87
2023-03-29T22:52:32.083Z,10.13
2023-03-29T22:54:59.272Z,10.18
2023-03-29T22:57:26.510Z,10.10
2023-03-29T22:59:53.707Z,9.98
2023-03-29T23:02:21.664Z,10.04
2023-03-29T23:04:48.873Z,9.87
2023-03-29T23:07:16.103Z,9.95
2023-03-29T23:09:43.400Z,9.80
2023-03-29T23:12:10.557Z,9.75
2023-03-29T23:14:42.467Z,9.83
2023-03-29T23:17:10.232Z,9.72
2023-03-29T23:19:38.048Z,9.71
2023-03-29T23:22:05.382Z,9.67
2023-03-29T23:24:32.560Z,9.67
2023-03-29T23:27:01.059Z,9.63
2023-03-29T23:29:28.370Z,9.69
2023-03-29T23:31:56.835Z,9.78
2023-03-29T23:34:24.153Z,9.72
2023-03-29T23:36:51.300Z,9.94
2023-03-29T23:39:18.430Z,9.80
2023-03-29T23:41:45.672Z,9.69
2023-03-29T23:44:12.904Z,9.85
2023-03-29T23:46:40.941Z,9.95
2023-03-29T23:49:09.872Z,9.85
2023-03-29T23:51:39.000Z,9.77
2023-03-29T23:54:06.530Z,9.70
2023-03-29T23:56:33.832Z,9.79
2023-03-29T23:59:01.457Z,9.61
